createdAt,value
2019-04-22T00:00:24.599Z,3.10
2019-04-22T00:01:25.884Z,2.80
2019-04-22T00:02:20.850Z,2.90
2019-04-22T00:03:27.140Z,2.60
2019-04-22T00:04:33.816Z,2.90
2019-04-22T00:05:42.896Z,2.80
2019-04-22T00:06:44.398Z,3.00
2019-04-22T00:07:41.933Z,2.60
2019-04-22T00:08:43.092Z,3.00
2019-04-22T00:09:49.406Z,2.80
2019-04-22T00:10:46.776Z,3.00
2019-04-22T00:11:48.511Z,2.90
2019-04-22T00:12:48.647Z,2.50
2019-04-22T00:14:00.940Z,3.00
2019-04-22T00:14:42.522Z,3.00
2019-04-22T00:15:41.796Z,2.50
2019-04-22T00:16:53.630Z,3.30
2019-04-22T00:17:53.773Z,3.00
2019-04-22T00:19:01.762Z,2.60
2019-04-22T00:19:55.611Z,2.70
2019-04-22T00:20:50.447Z,2.80
2019-04-22T00:21:48.998Z,2.80
2019-04-22T00:22:44.893Z,2.80
2019-04-22T00:23:45.298Z,3.20
2019-04-22T00:24:45.998Z,2.70
2019-04-22T00:25:53.952Z,2.70
2019-04-22T00:26:50.223Z,3.00
2019-04-22T00:27:50.319Z,2.80
2019-04-22T00:28:49.954Z,3.00
2019-04-22T00:30:47.026Z,2.70
2019-04-22T00:31:47.992Z,2.90
2019-04-22T00:32:44.978Z,2.70
2019-04-22T00:33:45.083Z,2.80
2019-04-22T00:34:42.609Z,2.90
2019-04-22T00:35:41.322Z,3.00
2019-04-22T00:36:43.126Z,2.80
2019-04-22T00:37:54.079Z,3.10
2019-04-22T00:38:44.265Z,2.90
2019-04-22T00:39:46.662Z,2.70
2019-04-22T00:40:45.076Z,2.60
2019-04-22T00:41:51.978Z,2.70
2019-04-22T00:42:47.624Z,2.70
2019-04-22T00:43:49.772Z,2.80
2019-04-22T00:44:45.604Z,3.00
2019-04-22T00:45:48.137Z,2.80
2019-04-22T00:46:46.350Z,2.60
2019-04-22T00:47:46.186Z,2.60
2019-04-22T00:49:05.800Z,2.80
2019-04-22T00:50:14.606Z,2.90
2019-04-22T00:50:58.276Z,2.70
2019-04-22T00:51:52.191Z,2.70
2019-04-22T00:52:49.047Z,2.60
2019-04-22T00:53:48.858Z,2.60
2019-04-22T00:54:55.678Z,2.60
2019-04-22T00:55:46.334Z,2.90
2019-04-22T00:56:47.737Z,2.50
2019-04-22T00:57:46.295Z,2.60
2019-04-22T00:58:45.114Z,2.60
2019-04-22T00:59:50.808Z,3.20
2019-04-22T01:00:44.296Z,2.80
2019-04-22T01:01:50.604Z,2.70
2019-04-22T01:02:49.707Z,2.60
2019-04-22T01:03:50.257Z,2.50
2019-04-22T01:04:47.551Z,2.40
2019-04-22T01:05:46.929Z,2.70
2019-04-22T01:06:48.936Z,2.80
2019-04-22T01:07:43.531Z,2.80
2019-04-22T01:08:53.736Z,2.40
2019-04-22T01:09:56.175Z,2.80
2019-04-22T01:10:45.444Z,2.60
2019-04-22T01:11:44.614Z,3.00
2019-04-22T01:12:44.961Z,2.70
2019-04-22T01:13:46.868Z,3.10
2019-04-22T01:14:47.840Z,2.70
2019-04-22T01:15:47.769Z,2.50
2019-04-22T01:16:50.441Z,2.80
2019-04-22T01:17:46.427Z,2.80
2019-04-22T01:18:45.823Z,2.70
2019-04-22T01:19:52.643Z,3.10
2019-04-22T01:21:44.962Z,2.80
2019-04-22T01:22:46.690Z,2.40
2019-04-22T01:23:43.824Z,2.60
2019-04-22T01:24:38.687Z,2.50
2019-04-22T01:25:42.121Z,2.80
2019-04-22T01:26:41.912Z,2.70
2019-04-22T01:27:41.862Z,2.60
2019-04-22T01:28:34.174Z,2.80
2019-04-22T01:29:35.015Z,2.60
2019-04-22T01:30:32.951Z,2.80
2019-04-22T01:31:26.895Z,2.60
2019-04-22T01:32:27.305Z,2.70
2019-04-22T01:33:29.375Z,2.90
2019-04-22T01:34:36.446Z,2.60
2019-04-22T01:35:37.656Z,2.80
2019-04-22T01:36:45.713Z,2.50
2019-04-22T01:37:43.338Z,2.80
2019-04-22T01:38:45.663Z,3.20
2019-04-22T01:39:50.467Z,2.90
2019-04-22T01:40:53.919Z,2.90
2019-04-22T01:41:55.286Z,2.50
2019-04-22T01:42:50.323Z,2.70
2019-04-22T01:44:45.469Z,2.80
2019-04-22T01:45:49.678Z,2.50
2019-04-22T01:47:03.449Z,2.80
2019-04-22T01:48:05.436Z,2.80
2019-04-22T01:48:47.717Z,2.90
2019-04-22T01:49:50.201Z,2.70
2019-04-22T01:50:44.296Z,3.10
2019-04-22T01:51:59.340Z,2.70
2019-04-22T01:52:53.163Z,2.90
2019-04-22T01:53:50.445Z,2.50
2019-04-22T01:54:52.703Z,2.80
2019-04-22T01:56:46.931Z,2.70
2019-04-22T01:57:47.787Z,2.60
2019-04-22T01:58:38.151Z,2.90
2019-04-22T01:59:40.366Z,2.50
2019-04-22T02:00:49.385Z,2.80
2019-04-22T02:01:49.932Z,2.70
2019-04-22T02:02:48.736Z,2.70
2019-04-22T02:03:46.505Z,2.60
2019-04-22T02:05:10.577Z,2.50
2019-04-22T02:05:44.155Z,2.60
2019-04-22T02:06:48.554Z,2.80
2019-04-22T02:07:49.036Z,2.70
2019-04-22T02:08:53.301Z,2.70
2019-04-22T02:09:53.345Z,2.70
2019-04-22T02:10:54.606Z,2.90
2019-04-22T02:12:45.945Z,2.90
2019-04-22T02:13:49.512Z,2.80
2019-04-22T02:14:44.285Z,2.40
2019-04-22T02:15:52.473Z,2.70
2019-04-22T02:16:49.781Z,2.70
2019-04-22T02:18:10.714Z,2.70
2019-04-22T02:18:53.091Z,2.70
2019-04-22T02:19:53.489Z,2.70
2019-04-22T02:21:01.694Z,2.50
2019-04-22T02:21:48.829Z,2.60
2019-04-22T02:23:00.772Z,2.60
2019-04-22T02:25:51.518Z,2.60
2019-04-22T02:27:09.236Z,2.80
2019-04-22T02:27:54.622Z,2.60
2019-04-22T02:29:01.920Z,2.70
2019-04-22T02:29:50.101Z,2.70
2019-04-22T02:31:16.155Z,2.80
2019-04-22T02:32:17.167Z,2.50
2019-04-22T02:33:11.620Z,2.70
2019-04-22T02:35:01.313Z,2.50
2019-04-22T02:36:11.757Z,2.50
2019-04-22T02:36:54.782Z,2.70
2019-04-22T02:37:45.515Z,2.50
2019-04-22T02:39:57.651Z,2.70
2019-04-22T02:41:52.463Z,2.90
2019-04-22T02:42:58.105Z,2.80
2019-04-22T02:44:53.679Z,2.70
2019-04-22T02:46:26.761Z,2.50
2019-04-22T02:47:07.882Z,2.50
2019-04-22T02:47:49.918Z,2.90
2019-04-22T02:49:53.599Z,2.60
2019-04-22T02:50:54.905Z,2.70
2019-04-22T02:51:47.360Z,2.80
2019-04-22T02:53:19.065Z,2.70
2019-04-22T02:54:55.100Z,2.60
2019-04-22T02:56:08.215Z,2.60
2019-04-22T02:56:48.636Z,2.80
2019-04-22T02:57:49.453Z,2.60
2019-04-22T03:00:01.113Z,2.70
2019-04-22T03:00:58.265Z,3.10
2019-04-22T03:02:10.039Z,2.70
2019-04-22T03:03:09.172Z,2.90
2019-04-22T03:04:06.784Z,2.80
2019-04-22T03:04:52.944Z,2.80
2019-04-22T03:06:15.393Z,3.00
2019-04-22T03:06:42.616Z,2.80
2019-04-22T03:07:58.798Z,2.80
2019-04-22T03:09:12.647Z,2.90
2019-04-22T03:09:52.788Z,2.90
2019-04-22T03:11:15.208Z,2.90
2019-04-22T03:12:02.765Z,2.90
2019-04-22T03:12:53.940Z,3.00
2019-04-22T03:13:59.949Z,3.10
2019-04-22T03:14:54.888Z,2.70
2019-04-22T03:15:59.684Z,2.90
2019-04-22T03:17:51.650Z,3.20
2019-04-22T03:19:02.921Z,3.00
2019-04-22T03:20:58.010Z,3.00
2019-04-22T03:21:54.655Z,3.00
2019-04-22T03:22:59.994Z,2.90
2019-04-22T03:24:08.533Z,2.80
2019-04-22T03:27:47.866Z,3.20
2019-04-22T03:28:54.957Z,3.10
2019-04-22T03:30:26.705Z,3.30
2019-04-22T03:36:18.350Z,3.40
2019-04-22T03:39:15.604Z,3.20
2019-04-22T03:40:07.666Z,3.60
2019-04-22T03:41:16.964Z,3.20
2019-04-22T03:43:09.184Z,3.30
2019-04-22T03:43:14.082Z,3.50
2019-04-22T03:44:10.200Z,3.50
2019-04-22T03:45:01.233Z,3.40
2019-04-22T03:45:51.573Z,3.50
2019-04-22T03:47:02.322Z,3.30
2019-04-22T03:49:12.082Z,3.50
2019-04-22T03:50:03.998Z,3.40
2019-04-22T03:51:01.934Z,3.80
2019-04-22T03:52:07.314Z,3.40
2019-04-22T03:54:04.817Z,3.60
2019-04-22T03:55:05.090Z,3.10
2019-04-22T03:55:59.800Z,3.40
2019-04-22T03:57:55.543Z,3.60
2019-04-22T03:58:58.701Z,3.40
2019-04-22T04:00:55.345Z,3.30
2019-04-22T04:02:15.563Z,3.90
2019-04-22T04:02:54.777Z,3.70
2019-04-22T04:04:01.106Z,3.60
2019-04-22T04:04:50.973Z,4.40
2019-04-22T04:05:54.133Z,3.40
2019-04-22T04:10:01.087Z,4.40
2019-04-22T04:11:59.970Z,3.20
2019-04-22T04:13:01.942Z,3.50
2019-04-22T04:14:05.301Z,3.30
2019-04-22T04:17:54.943Z,3.70
2019-04-22T04:20:05.479Z,3.80
2019-04-22T04:21:14.531Z,3.60
2019-04-22T04:21:48.432Z,3.20
2019-04-22T04:24:19.889Z,4.00
2019-04-22T04:25:08.387Z,3.90
2019-04-22T04:29:06.296Z,3.50
2019-04-22T04:30:59.844Z,3.90
2019-04-22T04:32:07.261Z,3.50
2019-04-22T04:33:05.180Z,4.20
2019-04-22T04:33:53.928Z,3.80
2019-04-22T04:35:54.835Z,3.50
2019-04-22T04:37:07.436Z,3.70
2019-04-22T04:39:02.940Z,3.70
2019-04-22T04:40:04.759Z,3.30
2019-04-22T04:42:07.304Z,3.40
2019-04-22T04:42:54.304Z,3.70
2019-04-22T04:44:06.174Z,3.50
2019-04-22T04:45:11.795Z,3.50
2019-04-22T04:45:59.475Z,4.00
2019-04-22T04:49:58.457Z,4.00
2019-04-22T04:51:07.766Z,3.70
2019-04-22T04:52:19.770Z,3.70
2019-04-22T04:54:08.703Z,3.60
2019-04-22T04:54:59.430Z,3.60
2019-04-22T04:55:53.143Z,3.50
2019-04-22T04:56:56.618Z,3.50
2019-04-22T04:58:03.984Z,3.40
2019-04-22T04:59:05.694Z,3.60
2019-04-22T05:00:26.197Z,3.40
2019-04-22T05:00:58.032Z,3.80
2019-04-22T05:01:56.037Z,3.30
2019-04-22T05:03:00.559Z,3.70
2019-04-22T05:04:04.535Z,3.70
2019-04-22T05:05:10.487Z,3.70
2019-04-22T05:07:05.771Z,3.60
2019-04-22T05:07:56.497Z,3.60
2019-04-22T05:09:15.059Z,3.60
2019-04-22T05:10:03.881Z,3.70
2019-04-22T05:11:00.546Z,3.70
2019-04-22T05:13:01.899Z,4.20
2019-04-22T05:13:57.654Z,4.00
2019-04-22T05:14:55.133Z,5.90
2019-04-22T05:16:10.612Z,3.80
2019-04-22T05:16:54.645Z,3.70
2019-04-22T05:17:57.990Z,3.80
2019-04-22T05:19:02.523Z,4.00
2019-04-22T05:20:00.961Z,3.90
2019-04-22T05:21:06.806Z,3.80
2019-04-22T05:21:55.983Z,3.80
2019-04-22T05:22:51.042Z,3.90
2019-04-22T05:23:54.602Z,4.20
2019-04-22T05:24:56.884Z,4.10
2019-04-22T05:25:51.238Z,4.10
2019-04-22T05:27:08.682Z,4.40
2019-04-22T05:28:07.584Z,4.70
2019-04-22T05:28:49.962Z,4.00
2019-04-22T05:30:45.993Z,4.20
2019-04-22T05:31:53.494Z,4.30
2019-04-22T05:32:52.158Z,4.00
2019-04-22T05:33:48.416Z,4.00
2019-04-22T05:34:48.091Z,4.20
2019-04-22T05:35:46.426Z,4.10
2019-04-22T05:36:48.233Z,4.40
2019-04-22T05:39:53.200Z,5.00
2019-04-22T05:40:51.509Z,4.70
2019-04-22T05:41:48.285Z,4.90
2019-04-22T05:42:51.260Z,4.50
2019-04-22T05:43:50.215Z,4.50
2019-04-22T05:44:52.837Z,4.40
2019-04-22T05:45:56.330Z,4.40
2019-04-22T05:46:49.844Z,4.70
2019-04-22T05:47:52.267Z,4.50
2019-04-22T05:48:53.537Z,4.60
2019-04-22T05:49:48.329Z,5.00
2019-04-22T05:50:54.807Z,4.50
2019-04-22T05:51:48.544Z,4.60
2019-04-22T05:52:49.876Z,4.90
2019-04-22T05:53:49.474Z,5.40
2019-04-22T05:54:50.534Z,4.60
2019-04-22T05:55:48.898Z,4.60
2019-04-22T05:57:03.939Z,4.50
2019-04-22T05:57:51.019Z,4.30
2019-04-22T05:58:53.225Z,5.00
2019-04-22T05:59:52.206Z,4.60
2019-04-22T06:01:11.902Z,5.30
2019-04-22T06:02:16.399Z,5.00
2019-04-22T06:02:53.550Z,4.60
2019-04-22T06:03:53.119Z,4.70
2019-04-22T06:04:54.971Z,5.20
2019-04-22T06:05:47.263Z,4.50
2019-04-22T06:06:51.596Z,5.30
2019-04-22T06:07:47.297Z,5.50
2019-04-22T06:08:51.257Z,4.40
2019-04-22T06:09:49.248Z,4.70
2019-04-22T06:10:55.798Z,4.70
2019-04-22T06:11:40.607Z,4.50
2019-04-22T06:12:43.385Z,4.50
2019-04-22T06:13:46.134Z,4.50
2019-04-22T06:14:47.915Z,4.40
2019-04-22T06:15:49.659Z,4.50
2019-04-22T06:16:50.261Z,4.30
2019-04-22T06:17:55.716Z,4.30
2019-04-22T06:18:52.739Z,4.60
2019-04-22T06:19:55.930Z,4.40
2019-04-22T06:20:56.488Z,4.40
2019-04-22T06:22:07.100Z,4.20
2019-04-22T06:22:51.014Z,4.20
2019-04-22T06:23:54.661Z,4.20
2019-04-22T06:24:53.872Z,4.50
2019-04-22T06:26:10.040Z,4.40
2019-04-22T06:27:08.298Z,4.30
2019-04-22T06:28:00.266Z,4.20
2019-04-22T06:29:46.333Z,3.90
2019-04-22T06:30:50.295Z,4.00
2019-04-22T06:32:11.622Z,4.00
2019-04-22T06:32:51.769Z,3.90
2019-04-22T06:33:54.457Z,4.10
2019-04-22T06:34:48.277Z,4.10
2019-04-22T06:35:50.111Z,4.20
2019-04-22T06:36:51.113Z,4.40
2019-04-22T06:38:14.559Z,5.00
2019-04-22T06:38:46.999Z,4.20
2019-04-22T06:39:47.756Z,3.80
2019-04-22T06:40:59.686Z,4.30
2019-04-22T06:42:00.961Z,4.30
2019-04-22T06:42:52.151Z,4.30
2019-04-22T06:43:56.166Z,4.40
2019-04-22T06:44:56.389Z,3.80
2019-04-22T06:45:43.555Z,4.00
2019-04-22T06:48:47.970Z,3.50
2019-04-22T06:49:48.281Z,3.90
2019-04-22T06:50:47.558Z,3.80
2019-04-22T06:52:08.736Z,3.80
2019-04-22T06:52:55.603Z,3.90
2019-04-22T06:53:49.387Z,4.20
2019-04-22T06:54:48.912Z,3.70
2019-04-22T06:56:48.479Z,3.80
2019-04-22T06:57:52.722Z,3.50
2019-04-22T06:58:47.744Z,3.60
2019-04-22T06:59:55.374Z,3.60
2019-04-22T07:00:44.494Z,3.60
2019-04-22T07:01:48.612Z,3.60
2019-04-22T07:03:11.007Z,3.60
2019-04-22T07:04:55.214Z,3.80
2019-04-22T07:05:46.375Z,3.60
2019-04-22T07:06:56.525Z,3.70
2019-04-22T07:07:54.984Z,3.80
2019-04-22T07:09:14.401Z,3.80
2019-04-22T07:10:49.071Z,3.30
2019-04-22T07:11:51.484Z,3.50
2019-04-22T07:12:48.722Z,3.40
2019-04-22T07:13:54.858Z,3.80
2019-04-22T07:14:48.878Z,3.40
2019-04-22T07:15:56.326Z,3.50
2019-04-22T07:16:52.516Z,3.40
2019-04-22T07:17:52.240Z,3.50
2019-04-22T07:18:48.729Z,3.50
2019-04-22T07:20:04.059Z,3.80
2019-04-22T07:20:51.314Z,3.80
2019-04-22T07:21:53.826Z,4.20
2019-04-22T07:24:21.220Z,3.80
2019-04-22T07:25:45.152Z,3.70
2019-04-22T07:26:54.381Z,3.80
2019-04-22T07:27:46.950Z,3.40
2019-04-22T07:28:49.017Z,4.00
2019-04-22T07:29:55.333Z,4.20
2019-04-22T07:30:53.415Z,3.60
2019-04-22T07:31:54.713Z,4.50
2019-04-22T07:33:12.660Z,4.80
2019-04-22T07:34:52.285Z,3.80
2019-04-22T07:37:09.564Z,3.90
2019-04-22T07:38:42.819Z,4.00
2019-04-22T07:39:45.389Z,3.80
2019-04-22T07:40:51.913Z,4.20
2019-04-22T07:41:51.364Z,3.90
2019-04-22T07:42:48.149Z,3.50
2019-04-22T07:44:51.181Z,4.00
2019-04-22T07:45:49.182Z,3.70
2019-04-22T07:47:00.834Z,3.70
2019-04-22T07:47:52.426Z,4.20
2019-04-22T07:48:51.816Z,3.90
2019-04-22T07:49:50.873Z,4.00
2019-04-22T07:51:49.840Z,3.80
2019-04-22T07:52:45.013Z,4.00
2019-04-22T07:53:48.993Z,3.80
2019-04-22T07:54:53.062Z,3.90
2019-04-22T07:55:47.526Z,3.70
2019-04-22T07:56:55.986Z,3.80
2019-04-22T07:58:05.336Z,3.40
2019-04-22T07:58:51.783Z,3.80
2019-04-22T07:59:49.067Z,3.90
2019-04-22T08:00:53.024Z,4.10
2019-04-22T08:01:53.718Z,3.80
2019-04-22T08:02:50.387Z,3.90
2019-04-22T08:03:58.689Z,3.70
2019-04-22T08:04:58.034Z,3.70
2019-04-22T08:05:58.858Z,3.80
2019-04-22T08:06:52.802Z,3.70
2019-04-22T08:07:52.151Z,3.40
2019-04-22T08:08:58.410Z,3.80
2019-04-22T08:10:49.957Z,4.00
2019-04-22T08:12:20.234Z,3.60
2019-04-22T08:12:55.794Z,3.50
2019-04-22T08:13:48.119Z,3.70
2019-04-22T08:15:56.908Z,3.80
2019-04-22T08:16:51.831Z,3.90
2019-04-22T08:18:04.971Z,3.80
2019-04-22T08:18:46.001Z,3.80
2019-04-22T08:19:53.166Z,3.70
2019-04-22T08:20:52.059Z,3.90
2019-04-22T08:21:52.202Z,3.90
2019-04-22T08:22:56.088Z,3.80
2019-04-22T08:23:50.891Z,4.00
2019-04-22T08:24:51.444Z,3.80
2019-04-22T08:25:47.456Z,3.60
2019-04-22T08:26:56.444Z,3.70
2019-04-22T08:27:51.897Z,3.80
2019-04-22T08:28:53.299Z,3.70
2019-04-22T08:29:58.700Z,3.40
2019-04-22T08:32:05.120Z,3.30
2019-04-22T08:34:47.588Z,2.80
2019-04-22T08:36:12.002Z,2.90
2019-04-22T08:37:12.012Z,3.00
2019-04-22T08:37:51.105Z,2.60
2019-04-22T08:38:53.920Z,2.70
2019-04-22T08:39:49.972Z,2.70
2019-04-22T08:40:58.081Z,2.70
2019-04-22T08:41:48.186Z,2.80
2019-04-22T08:42:55.502Z,2.50
2019-04-22T08:43:57.710Z,2.50
2019-04-22T08:45:09.188Z,2.50
2019-04-22T08:45:54.624Z,2.80
2019-04-22T08:46:57.737Z,2.40
2019-04-22T08:47:50.557Z,2.80
2019-04-22T08:48:55.681Z,2.60
2019-04-22T08:49:56.977Z,2.40
2019-04-22T08:50:51.928Z,2.50
2019-04-22T08:51:49.057Z,2.60
2019-04-22T08:52:48.397Z,2.50
2019-04-22T08:53:57.221Z,2.50
2019-04-22T08:54:53.668Z,2.60
2019-04-22T08:55:59.557Z,2.70
2019-04-22T08:58:09.155Z,2.20
2019-04-22T08:58:57.384Z,2.50
2019-04-22T08:59:49.038Z,4.00
2019-04-22T09:01:04.618Z,2.50
2019-04-22T09:01:46.868Z,2.50
2019-04-22T09:02:53.993Z,2.70
2019-04-22T09:03:52.675Z,2.50
2019-04-22T09:04:48.052Z,2.20
2019-04-22T09:07:59.787Z,2.40
2019-04-22T09:08:58.538Z,2.20
2019-04-22T09:09:50.774Z,2.40
2019-04-22T09:10:49.007Z,2.30
2019-04-22T09:11:57.737Z,2.10
2019-04-22T09:12:57.617Z,2.20
2019-04-22T09:14:05.876Z,2.30
2019-04-22T09:14:47.246Z,2.20
2019-04-22T09:15:53.706Z,2.20
2019-04-22T09:16:48.301Z,2.20
2019-04-22T09:18:08.451Z,2.20
2019-04-22T09:18:48.575Z,2.40
2019-04-22T09:19:47.886Z,2.40
2019-04-22T09:21:04.271Z,2.40
2019-04-22T09:21:56.398Z,2.70
2019-04-22T09:22:56.963Z,2.70
2019-04-22T09:23:53.930Z,2.70
2019-04-22T09:24:46.911Z,2.10
2019-04-22T09:25:51.183Z,2.40
2019-04-22T09:26:50.519Z,2.20
2019-04-22T09:27:53.684Z,2.60
2019-04-22T09:28:52.276Z,2.20
2019-04-22T09:29:55.530Z,2.10
2019-04-22T09:30:56.917Z,2.10
2019-04-22T09:31:53.603Z,2.40
2019-04-22T09:32:59.523Z,2.10
2019-04-22T09:33:51.496Z,2.20
2019-04-22T09:34:51.392Z,2.20
2019-04-22T09:35:52.417Z,2.00
2019-04-22T09:36:50.251Z,2.30
2019-04-22T09:37:57.458Z,2.00
2019-04-22T09:38:46.796Z,2.10
2019-04-22T09:41:10.109Z,2.20
2019-04-22T09:41:51.097Z,2.30
2019-04-22T09:42:51.717Z,2.30
2019-04-22T09:43:52.143Z,2.40
2019-04-22T09:44:53.347Z,2.60
2019-04-22T09:45:51.099Z,2.30
2019-04-22T09:47:56.737Z,2.30
2019-04-22T09:48:51.874Z,2.50
2019-04-22T09:49:56.708Z,2.20
2019-04-22T09:50:47.941Z,2.10
2019-04-22T09:51:56.977Z,2.10
2019-04-22T09:52:53.218Z,2.20
2019-04-22T09:55:55.608Z,2.00
2019-04-22T09:56:51.743Z,2.20
2019-04-22T09:57:50.913Z,2.10
2019-04-22T09:58:52.361Z,2.10
2019-04-22T09:59:58.003Z,2.40
2019-04-22T10:01:00.198Z,1.80
2019-04-22T10:01:59.623Z,1.90
2019-04-22T10:02:59.309Z,2.10
2019-04-22T10:03:56.310Z,2.00
2019-04-22T10:04:55.214Z,2.10
2019-04-22T10:06:06.174Z,2.20
2019-04-22T10:06:44.336Z,2.30
2019-04-22T10:07:52.507Z,2.20
2019-04-22T10:09:02.079Z,2.00
2019-04-22T10:09:59.749Z,2.10
2019-04-22T10:11:00.801Z,2.40
2019-04-22T10:11:51.090Z,2.90
2019-04-22T10:12:46.806Z,2.30
2019-04-22T10:13:53.593Z,2.10
2019-04-22T10:14:49.264Z,2.00
2019-04-22T10:15:59.020Z,1.80
2019-04-22T10:16:51.433Z,2.00
2019-04-22T10:17:54.498Z,1.80
2019-04-22T10:18:54.459Z,2.00
2019-04-22T10:20:53.866Z,1.90
2019-04-22T10:21:50.134Z,2.00
2019-04-22T10:22:53.259Z,2.00
2019-04-22T10:23:53.519Z,1.90
2019-04-22T10:24:53.216Z,1.70
2019-04-22T10:25:53.792Z,2.00
2019-04-22T10:26:54.951Z,1.90
2019-04-22T10:27:59.927Z,2.00
2019-04-22T10:28:53.118Z,1.80
2019-04-22T10:29:54.125Z,1.80
2019-04-22T10:31:49.753Z,2.10
2019-04-22T10:32:47.581Z,1.80
2019-04-22T10:33:40.904Z,1.70
2019-04-22T10:34:34.997Z,1.90
2019-04-22T10:35:28.696Z,1.80
2019-04-22T10:36:25.707Z,1.90
2019-04-22T10:37:25.782Z,1.70
2019-04-22T10:38:26.465Z,1.80
2019-04-22T10:39:37.880Z,1.80
2019-04-22T10:40:25.748Z,1.70
2019-04-22T10:41:26.324Z,1.90
2019-04-22T10:42:25.515Z,1.80
2019-04-22T10:43:25.523Z,1.70
2019-04-22T10:44:26.875Z,1.70
2019-04-22T10:45:26.084Z,1.60
2019-04-22T10:46:26.362Z,1.70
2019-04-22T10:47:25.771Z,1.60
2019-04-22T10:48:26.187Z,1.70
2019-04-22T10:49:26.550Z,2.80
2019-04-22T10:50:25.699Z,2.60
2019-04-22T10:51:26.569Z,1.80
2019-04-22T10:52:25.696Z,1.80
2019-04-22T10:53:25.803Z,1.90
2019-04-22T10:54:25.642Z,2.00
2019-04-22T10:55:25.642Z,2.00
2019-04-22T10:56:25.606Z,1.80
2019-04-22T10:57:25.683Z,1.70
2019-04-22T10:58:26.645Z,1.70
2019-04-22T10:59:26.867Z,1.90
2019-04-22T11:00:25.621Z,1.80
2019-04-22T11:01:25.731Z,1.70
2019-04-22T11:02:25.709Z,1.90
2019-04-22T11:03:28.043Z,1.80
2019-04-22T11:04:25.964Z,2.00
2019-04-22T11:05:26.182Z,1.90
2019-04-22T11:06:25.676Z,1.90
2019-04-22T11:07:36.328Z,1.80
2019-04-22T11:08:35.027Z,2.10
2019-04-22T11:09:26.960Z,1.80
2019-04-22T11:10:41.222Z,2.00
2019-04-22T11:11:37.510Z,2.20
2019-04-22T11:12:30.000Z,2.10
2019-04-22T11:13:26.248Z,2.00
2019-04-22T11:14:26.593Z,2.30
2019-04-22T11:15:26.597Z,2.00
2019-04-22T11:16:25.792Z,1.80
2019-04-22T11:17:26.077Z,1.90
2019-04-22T11:18:25.886Z,2.20
2019-04-22T11:19:25.790Z,2.20
2019-04-22T11:20:26.033Z,2.30
2019-04-22T11:21:25.855Z,2.10
2019-04-22T11:22:31.253Z,2.60
2019-04-22T11:23:27.021Z,2.10
2019-04-22T11:24:26.679Z,2.20
2019-04-22T11:25:25.885Z,2.20
2019-04-22T11:26:26.002Z,2.30
2019-04-22T11:27:25.915Z,2.10
2019-04-22T11:28:27.313Z,2.20
2019-04-22T11:29:25.897Z,2.60
2019-04-22T11:30:28.079Z,2.60
2019-04-22T11:31:26.446Z,2.30
2019-04-22T11:32:26.622Z,2.90
2019-04-22T11:33:26.741Z,2.40
2019-04-22T11:34:26.936Z,2.50
2019-04-22T11:35:25.932Z,2.80
2019-04-22T11:36:30.157Z,2.30
2019-04-22T11:37:25.934Z,2.40
2019-04-22T11:38:26.792Z,2.50
2019-04-22T11:39:28.977Z,2.50
2019-04-22T11:40:35.730Z,2.60
2019-04-22T11:41:25.959Z,2.80
2019-04-22T11:42:26.041Z,2.60
2019-04-22T11:43:26.225Z,2.40
2019-04-22T11:44:27.518Z,2.60
2019-04-22T11:45:27.077Z,2.50
2019-04-22T11:46:27.237Z,2.50
2019-04-22T11:47:27.406Z,2.60
2019-04-22T11:48:27.047Z,2.70
2019-04-22T11:49:26.015Z,2.50
2019-04-22T11:50:26.309Z,2.60
2019-04-22T11:51:27.478Z,2.80
2019-04-22T11:52:26.933Z,2.90
2019-04-22T11:53:26.991Z,2.70
2019-04-22T11:54:26.084Z,2.60
2019-04-22T11:55:26.846Z,2.60
2019-04-22T11:56:27.141Z,2.40
2019-04-22T11:57:26.104Z,2.50
2019-04-22T11:58:26.593Z,2.80
2019-04-22T11:59:26.849Z,2.90
2019-04-22T12:00:27.036Z,2.80
2019-04-22T12:01:26.679Z,3.10
2019-04-22T12:02:27.170Z,3.30
2019-04-22T12:03:27.154Z,2.80
2019-04-22T12:04:27.569Z,2.80
2019-04-22T12:05:26.156Z,2.70
2019-04-22T12:06:26.347Z,2.80
2019-04-22T12:07:26.729Z,2.60
2019-04-22T12:08:27.101Z,2.90
2019-04-22T12:09:26.214Z,2.50
2019-04-22T12:10:34.672Z,2.80
2019-04-22T12:11:26.337Z,2.70
2019-04-22T12:12:27.722Z,2.60
2019-04-22T12:13:26.337Z,2.80
2019-04-22T12:14:27.655Z,2.50
2019-04-22T12:15:26.787Z,2.70
2019-04-22T12:16:27.380Z,2.80
2019-04-22T12:17:26.550Z,2.60
2019-04-22T12:18:27.106Z,2.70
2019-04-22T12:19:27.124Z,2.50
2019-04-22T12:20:27.563Z,2.40
2019-04-22T12:21:26.687Z,2.50
2019-04-22T12:22:26.956Z,2.40
2019-04-22T12:23:27.311Z,2.40
2019-04-22T12:24:26.315Z,2.40
2019-04-22T12:25:34.698Z,2.40
2019-04-22T12:26:26.983Z,2.50
2019-04-22T12:27:28.779Z,2.20
2019-04-22T12:28:26.836Z,2.20
2019-04-22T12:29:26.942Z,2.60
2019-04-22T12:30:27.775Z,2.40
2019-04-22T12:31:27.259Z,2.30
2019-04-22T12:32:27.402Z,2.50
2019-04-22T12:33:27.736Z,2.50
2019-04-22T12:34:26.416Z,2.60
2019-04-22T12:35:26.407Z,2.70
2019-04-22T12:36:26.652Z,2.40
2019-04-22T12:37:35.605Z,2.30
2019-04-22T12:38:27.437Z,2.40
2019-04-22T12:39:27.476Z,2.20
2019-04-22T12:40:37.263Z,2.50
2019-04-22T12:41:27.682Z,2.30
2019-04-22T12:42:27.093Z,2.50
2019-04-22T12:43:27.814Z,2.20
2019-04-22T12:44:26.643Z,2.30
2019-04-22T12:45:26.690Z,2.30
2019-04-22T12:46:28.058Z,2.50
2019-04-22T12:47:26.518Z,2.30
2019-04-22T12:48:27.479Z,2.60
2019-04-22T12:49:27.934Z,2.50
2019-04-22T12:50:31.846Z,2.20
2019-04-22T12:51:27.197Z,2.20
2019-04-22T12:52:34.211Z,2.50
2019-04-22T12:53:28.003Z,2.40
2019-04-22T12:54:26.933Z,2.40
2019-04-22T12:55:27.864Z,2.30
2019-04-22T12:56:27.817Z,2.40
2019-04-22T12:57:26.642Z,2.40
2019-04-22T12:58:27.644Z,2.20
2019-04-22T12:59:27.944Z,2.30
2019-04-22T13:00:26.693Z,2.40
2019-04-22T13:01:26.883Z,2.20
2019-04-22T13:02:27.030Z,2.20
2019-04-22T13:03:26.696Z,1.90
2019-04-22T13:04:27.976Z,2.10
2019-04-22T13:05:26.973Z,2.20
2019-04-22T13:06:27.885Z,2.30
2019-04-22T13:07:26.706Z,2.20
2019-04-22T13:08:27.614Z,1.90
2019-04-22T13:09:27.481Z,2.00
2019-04-22T13:10:39.084Z,2.30
2019-04-22T13:11:30.803Z,2.20
2019-04-22T13:12:26.778Z,2.30
2019-04-22T13:13:27.175Z,2.20
2019-04-22T13:14:27.388Z,2.50
2019-04-22T13:15:26.830Z,2.30
2019-04-22T13:16:27.048Z,2.10
2019-04-22T13:17:27.199Z,2.20
2019-04-22T13:18:35.279Z,2.40
2019-04-22T13:19:28.260Z,2.00
2019-04-22T13:20:28.070Z,2.70
2019-04-22T13:21:26.976Z,2.20
2019-04-22T13:22:27.061Z,2.10
2019-04-22T13:23:27.555Z,2.40
2019-04-22T13:24:27.982Z,2.50
2019-04-22T13:25:28.820Z,2.90
2019-04-22T13:26:27.236Z,2.20
2019-04-22T13:27:26.934Z,2.40
2019-04-22T13:28:27.263Z,2.30
2019-04-22T13:29:27.610Z,2.20
2019-04-22T13:30:28.294Z,2.40
2019-04-22T13:31:26.975Z,2.60
2019-04-22T13:32:27.033Z,2.50
2019-04-22T13:33:28.499Z,2.40
2019-04-22T13:34:34.865Z,2.50
2019-04-22T13:35:28.095Z,2.50
2019-04-22T13:36:28.276Z,2.50
2019-04-22T13:37:28.492Z,2.30
2019-04-22T13:38:27.101Z,2.60
2019-04-22T13:39:27.216Z,2.40
2019-04-22T13:40:26.994Z,2.50
2019-04-22T13:41:35.725Z,2.60
2019-04-22T13:42:27.575Z,2.40
2019-04-22T13:43:27.225Z,2.60
2019-04-22T13:44:28.067Z,2.30
2019-04-22T13:45:27.642Z,2.60
2019-04-22T13:46:31.092Z,2.80
2019-04-22T13:47:42.303Z,2.30
2019-04-22T13:48:46.288Z,2.50
2019-04-22T13:49:59.350Z,2.50
2019-04-22T13:51:01.007Z,2.50
2019-04-22T13:52:00.936Z,3.10
2019-04-22T13:53:18.336Z,2.70
2019-04-22T13:55:13.668Z,2.50
2019-04-22T13:55:51.502Z,2.30
2019-04-22T13:56:50.622Z,2.70
2019-04-22T13:57:45.400Z,2.70
2019-04-22T13:58:42.777Z,2.80
2019-04-22T13:59:33.455Z,2.60
2019-04-22T14:00:28.397Z,2.50
2019-04-22T14:01:28.326Z,3.30
2019-04-22T14:02:28.494Z,2.70
2019-04-22T14:03:28.902Z,2.90
2019-04-22T14:04:28.410Z,2.50
2019-04-22T14:05:28.623Z,2.20
2019-04-22T14:06:27.238Z,3.00
2019-04-22T14:07:28.547Z,2.80
2019-04-22T14:08:27.217Z,2.40
2019-04-22T14:09:28.343Z,2.60
2019-04-22T14:10:27.246Z,2.40
2019-04-22T14:11:39.319Z,2.70
2019-04-22T14:12:28.766Z,2.40
2019-04-22T14:13:27.955Z,2.40
2019-04-22T14:14:28.125Z,2.40
2019-04-22T14:15:27.800Z,2.30
2019-04-22T14:16:27.321Z,2.20
2019-04-22T14:17:27.330Z,2.30
2019-04-22T14:18:28.641Z,2.30
2019-04-22T14:19:27.884Z,2.40
2019-04-22T14:20:29.507Z,2.40
2019-04-22T14:21:27.406Z,2.10
2019-04-22T14:22:28.334Z,2.50
2019-04-22T14:23:28.671Z,2.40
2019-04-22T14:24:27.942Z,2.30
2019-04-22T14:25:28.483Z,2.20
2019-04-22T14:26:41.316Z,2.40
2019-04-22T14:27:38.271Z,2.30
2019-04-22T14:28:29.287Z,2.20
2019-04-22T14:29:27.470Z,2.40
2019-04-22T14:30:28.623Z,2.40
2019-04-22T14:31:28.679Z,2.40
2019-04-22T14:32:31.554Z,2.10
2019-04-22T14:33:27.865Z,2.40
2019-04-22T14:34:28.555Z,2.30
2019-04-22T14:35:27.512Z,2.30
2019-04-22T14:36:27.609Z,2.30
2019-04-22T14:37:27.839Z,2.10
2019-04-22T14:38:27.999Z,2.30
2019-04-22T14:39:28.090Z,1.90
2019-04-22T14:40:28.695Z,2.30
2019-04-22T14:41:43.466Z,2.50